createdAt,value
2019-01-19T00:00:19.678Z,97532.61
2019-01-19T00:03:21.161Z,97532.53
2019-01-19T00:06:40.112Z,97529.15
2019-01-19T00:09:22.794Z,97529.15
2019-01-19T00:12:18.872Z,97528.89
2019-01-19T00:15:10.733Z,97531.58
2019-01-19T00:18:22.290Z,97532.16
2019-01-19T00:21:27.463Z,97523.59
2019-01-19T00:24:44.991Z,97524.67
2019-01-19T00:27:39.922Z,97519.77
2019-01-19T00:30:51.364Z,97531.46
2019-01-19T00:33:32.085Z,97531.46
2019-01-19T00:36:31.701Z,97530.69
2019-01-19T00:39:44.788Z,97531.56
2019-01-19T00:42:27.551Z,97534.25
2019-01-19T00:46:12.341Z,97533.88
2019-01-19T00:49:09.001Z,97539.16
2019-01-19T00:52:14.608Z,97539.43
2019-01-19T00:55:18.531Z,97542.12
2019-01-19T00:58:23.051Z,97539.91
2019-01-19T01:01:21.595Z,97537.72
2019-01-19T01:04:37.121Z,97539.53
2019-01-19T01:07:34.436Z,97545.38
2019-01-19T01:10:36.814Z,97548.17
2019-01-19T01:13:50.871Z,97545.95
2019-01-19T01:16:32.790Z,97552.20
2019-01-19T01:19:58.041Z,97545.48
2019-01-19T01:22:55.672Z,97551.80
2019-01-19T01:25:53.783Z,97556.34
2019-01-19T01:28:50.128Z,97551.03
2019-01-19T01:31:43.203Z,97548.45
2019-01-19T01:34:58.733Z,97545.30
2019-01-19T01:37:57.307Z,97542.97
2019-01-19T01:41:06.088Z,97534.91
2019-01-19T01:43:50.074Z,97534.08
2019-01-19T01:47:11.283Z,97535.02
2019-01-19T01:50:15.407Z,97527.39
2019-01-19T01:53:23.561Z,97518.97
2019-01-19T01:55:58.076Z,97516.66
2019-01-19T01:59:07.928Z,97513.20
2019-01-19T02:02:12.794Z,97513.59
2019-01-19T02:05:14.874Z,97506.98
2019-01-19T02:08:35.088Z,97508.80
2019-01-19T02:11:22.665Z,97505.72
2019-01-19T02:14:29.214Z,97501.69
2019-01-19T02:17:26.838Z,97497.59
2019-01-19T02:20:06.319Z,97502.09
2019-01-19T02:23:19.513Z,97499.51
2019-01-19T02:26:22.144Z,97499.11
2019-01-19T02:29:29.391Z,97499.11
2019-01-19T02:32:25.244Z,97492.69
2019-01-19T02:35:19.870Z,97493.73
2019-01-19T02:38:33.973Z,97491.45
2019-01-19T02:41:37.916Z,97481.55
2019-01-19T02:44:29.812Z,97481.17
2019-01-19T02:47:30.261Z,97480.13
2019-01-19T02:50:30.052Z,97481.95
2019-01-19T02:53:14.970Z,97479.94
2019-01-19T02:56:14.487Z,97487.79
2019-01-19T02:58:55.608Z,97486.45
2019-01-19T03:01:56.055Z,97478.78
2019-01-19T03:04:39.600Z,97472.91
2019-01-19T03:07:50.185Z,97473.02
2019-01-19T03:10:51.197Z,97476.67
2019-01-19T03:13:54.488Z,97477.25
2019-01-19T03:17:26.923Z,97473.23
2019-01-19T03:20:11.345Z,97466.22
2019-01-19T03:23:35.061Z,97470.72
2019-01-19T03:26:51.638Z,97469.38
2019-01-19T03:29:35.983Z,97459.03
2019-01-19T03:33:05.349Z,97456.42
2019-01-19T03:36:13.822Z,97463.90
2019-01-19T03:39:28.990Z,97455.84
2019-01-19T03:42:15.298Z,97457.11
2019-01-19T03:45:27.766Z,97453.84
2019-01-19T03:48:34.263Z,97464.95
2019-01-19T03:51:28.524Z,97458.92
2019-01-19T03:54:27.906Z,97457.38
2019-01-19T03:57:31.793Z,97462.84
2019-01-19T04:00:48.201Z,97460.64
2019-01-19T04:03:45.260Z,97462.17
2019-01-19T04:06:48.493Z,97455.66
2019-01-19T04:09:54.066Z,97457.01
2019-01-19T04:13:29.831Z,97453.84
2019-01-19T04:16:41.418Z,97461.98
2019-01-19T04:19:53.441Z,97460.19
2019-01-19T04:22:56.796Z,97462.37
2019-01-19T04:25:52.935Z,97455.66
2019-01-19T04:28:25.667Z,97450.66
2019-01-19T04:30:55.959Z,97453.34
2019-01-19T04:33:26.247Z,97450.59
2019-01-19T04:35:56.593Z,97452.40
2019-01-19T04:38:26.916Z,97451.92
2019-01-19T04:40:57.268Z,97454.51
2019-01-19T04:43:27.554Z,97449.50
2019-01-19T04:45:58.908Z,97447.90
2019-01-19T04:48:29.467Z,97450.59
2019-01-19T04:50:59.759Z,97448.16
2019-01-19T04:53:30.010Z,97449.06
2019-01-19T04:56:00.336Z,97453.75
2019-01-19T04:58:30.637Z,97455.02
2019-01-19T05:01:01.021Z,97455.86
2019-01-19T05:03:31.322Z,97454.16
2019-01-19T05:06:01.609Z,97452.70
2019-01-19T05:08:31.891Z,97455.39
2019-01-19T05:11:02.185Z,97454.44
2019-01-19T05:13:32.463Z,97449.44
2019-01-19T05:16:02.724Z,97454.44
2019-01-19T05:18:33.145Z,97447.98
2019-01-19T05:21:03.640Z,97446.45
2019-01-19T05:23:34.001Z,97447.91
2019-01-19T05:26:04.371Z,97449.07
2019-01-19T05:28:35.627Z,97447.63
2019-01-19T05:31:05.882Z,97444.53
2019-01-19T05:33:36.160Z,97444.17
2019-01-19T05:36:06.412Z,97447.91
2019-01-19T05:38:36.702Z,97440.72
2019-01-19T05:41:06.943Z,97446.56
2019-01-19T05:43:38.954Z,97438.98
2019-01-19T05:46:11.331Z,97445.44
2019-01-19T05:48:42.420Z,97441.09
2019-01-19T05:51:12.668Z,97442.53
2019-01-19T05:53:43.844Z,97445.22
2019-01-19T05:56:14.135Z,97445.44
2019-01-19T05:58:44.510Z,97447.03
2019-01-19T06:01:14.938Z,97443.41
2019-01-19T06:03:46.305Z,97444.86
2019-01-19T06:06:16.854Z,97439.48
2019-01-19T06:08:47.128Z,97443.41
2019-01-19T06:11:17.375Z,97439.48
2019-01-19T06:13:47.727Z,97437.52
2019-01-19T06:16:17.988Z,97437.44
2019-01-19T06:18:48.770Z,97439.83
2019-01-19T06:21:20.915Z,97432.56
2019-01-19T06:23:51.194Z,97441.67
2019-01-19T06:26:21.535Z,97445.70
2019-01-19T06:28:51.891Z,97445.30
2019-01-19T06:31:22.251Z,97438.52
2019-01-19T06:33:52.823Z,97433.98
2019-01-19T06:36:23.245Z,97437.17
2019-01-19T06:38:53.529Z,97439.75
2019-01-19T06:41:23.785Z,97441.20
2019-01-19T06:43:54.065Z,97436.66
2019-01-19T06:46:24.329Z,97432.95
2019-01-19T06:48:54.722Z,97433.72
2019-01-19T06:51:24.981Z,97438.20
2019-01-19T06:54:01.565Z,97437.44
2019-01-19T06:56:28.795Z,97435.89
2019-01-19T06:58:59.074Z,97439.34
2019-01-19T07:01:29.333Z,97442.02
2019-01-19T07:03:59.610Z,97443.77
2019-01-19T07:06:29.867Z,97446.56
2019-01-19T07:09:00.289Z,97444.70
2019-01-19T07:11:31.224Z,97442.42
2019-01-19T07:14:01.516Z,97441.45
2019-01-19T07:16:31.771Z,97442.42
2019-01-19T07:19:02.069Z,97446.78
2019-01-19T07:21:32.317Z,97445.80
2019-01-19T07:24:02.606Z,97447.14
2019-01-19T07:26:32.927Z,97445.70
2019-01-19T07:29:03.257Z,97441.19
2019-01-19T07:31:33.516Z,97440.32
2019-01-19T07:34:03.773Z,97443.30
2019-01-19T07:36:34.035Z,97444.94
2019-01-19T07:39:06.416Z,97446.28
2019-01-19T07:41:36.667Z,97452.02
2019-01-19T07:44:06.917Z,97449.33
2019-01-19T07:46:37.782Z,97444.36
2019-01-19T07:49:08.144Z,97449.63
2019-01-19T07:51:38.485Z,97440.98
2019-01-19T07:54:08.748Z,97452.60
2019-01-19T07:56:39.031Z,97444.91
2019-01-19T07:59:09.306Z,97446.64
2019-01-19T08:01:39.583Z,97449.70
2019-01-19T08:04:09.845Z,97447.77
2019-01-19T08:06:40.120Z,97444.25
2019-01-19T08:09:10.376Z,97443.27
2019-01-19T08:11:40.655Z,97448.64
2019-01-19T08:14:10.925Z,97449.41
2019-01-19T08:16:41.189Z,97448.47
2019-01-19T08:19:11.445Z,97439.90
2019-01-19T08:21:41.715Z,97449.30
2019-01-19T08:24:11.970Z,97450.58
2019-01-19T08:26:42.321Z,97448.72
2019-01-19T08:29:12.574Z,97448.65
2019-01-19T08:31:42.868Z,97455.37
2019-01-19T08:34:13.122Z,97452.68
2019-01-19T08:36:43.411Z,97454.78
2019-01-19T08:39:13.660Z,97450.65
2019-01-19T08:41:44.025Z,97456.39
2019-01-19T08:44:14.290Z,97457.66
2019-01-19T08:46:44.572Z,97452.75
2019-01-19T08:49:14.968Z,97454.09
2019-01-19T08:51:45.275Z,97456.20
2019-01-19T08:54:15.642Z,97458.42
2019-01-19T08:56:45.904Z,97459.77
2019-01-19T08:59:16.186Z,97463.21
2019-01-19T09:01:46.449Z,97460.42
2019-01-19T09:04:16.759Z,97461.29
2019-01-19T09:06:47.019Z,97467.61
2019-01-19T09:09:17.305Z,97468.95
2019-01-19T09:11:47.592Z,97472.41
2019-01-19T09:14:17.848Z,97465.21
2019-01-19T09:16:48.189Z,97470.11
2019-01-19T09:19:18.463Z,97471.94
2019-01-19T09:21:49.707Z,97470.48
2019-01-19T09:24:26.023Z,97464.16
2019-01-19T09:26:56.301Z,97467.80
2019-01-19T09:29:26.555Z,97469.03
2019-01-19T09:31:56.839Z,97466.27
2019-01-19T09:34:27.099Z,97466.62
2019-01-19T09:36:57.470Z,97466.16
2019-01-19T09:39:27.725Z,97462.70
2019-01-19T09:41:58.016Z,97461.36
2019-01-19T09:44:28.266Z,97457.69
2019-01-19T09:46:58.556Z,97458.56
2019-01-19T09:49:28.838Z,97453.19
2019-01-19T09:51:59.098Z,97453.19
2019-01-19T09:54:29.451Z,97453.59
2019-01-19T09:56:59.709Z,97448.58
2019-01-19T09:59:29.996Z,97442.33
2019-01-19T10:02:00.239Z,97447.23
2019-01-19T10:04:30.496Z,97441.85
2019-01-19T10:07:00.751Z,97441.38
2019-01-19T10:09:31.080Z,97436.37
2019-01-19T10:12:01.329Z,97427.36
2019-01-19T10:14:31.589Z,97426.02
2019-01-19T10:17:01.842Z,97425.03
2019-01-19T10:19:32.088Z,97421.00
2019-01-19T10:22:02.441Z,97417.47
2019-01-19T10:24:32.721Z,97409.66
2019-01-19T10:27:02.987Z,97409.30
2019-01-19T10:29:33.427Z,97407.56
2019-01-19T10:32:03.798Z,97401.59
2019-01-19T10:34:34.074Z,97401.13
2019-01-19T10:37:04.348Z,97401.59
2019-01-19T10:39:34.643Z,97395.38
2019-01-19T10:42:05.804Z,97398.08
2019-01-19T10:44:36.101Z,97390.37
2019-01-19T10:47:06.357Z,97391.23
2019-01-19T10:49:36.979Z,97389.89
2019-01-19T10:52:07.348Z,97398.33
2019-01-19T10:54:37.692Z,97391.23
2019-01-19T10:57:10.277Z,97389.89
2019-01-19T10:59:40.556Z,97385.75
2019-01-19T11:02:10.823Z,97380.96
2019-01-19T11:04:41.107Z,97380.02
2019-01-19T11:07:11.433Z,97380.84
2019-01-19T11:09:42.175Z,97375.00
2019-01-19T11:12:12.428Z,97373.18
2019-01-19T11:14:42.714Z,97376.73
2019-01-19T11:17:12.984Z,97370.09
2019-01-19T11:19:43.580Z,97359.84
2019-01-19T11:22:13.836Z,97361.20
2019-01-19T11:24:44.116Z,97353.61
2019-01-19T11:27:14.376Z,97352.62
2019-01-19T11:29:44.737Z,97357.05
2019-01-19T11:32:15.024Z,97348.11
2019-01-19T11:34:46.924Z,97346.77
2019-01-19T11:37:17.180Z,97338.70
2019-01-19T11:39:47.483Z,97336.48
2019-01-19T11:42:17.747Z,97332.45
2019-01-19T11:44:48.028Z,97331.63
2019-01-19T11:47:18.308Z,97325.73
2019-01-19T11:49:48.634Z,97323.55
2019-01-19T11:52:18.971Z,97311.45
2019-01-19T11:54:49.494Z,97307.31
2019-01-19T11:57:20.306Z,97313.64
2019-01-19T11:59:50.670Z,97307.67
2019-01-19T12:02:20.928Z,97301.94
2019-01-19T12:04:51.226Z,97297.91
2019-01-19T12:07:21.487Z,97292.53
2019-01-19T12:09:51.775Z,97288.49
2019-01-19T12:12:22.042Z,97292.13
2019-01-19T12:14:52.337Z,97295.58
2019-01-19T12:17:22.595Z,97293.39
2019-01-19T12:19:52.857Z,97289.84
2019-01-19T12:22:23.123Z,97283.12
2019-01-19T12:24:53.379Z,97284.94
2019-01-19T12:27:23.711Z,97283.59
2019-01-19T12:29:53.961Z,97288.02
2019-01-19T12:32:25.298Z,97274.66
2019-01-19T12:34:56.689Z,97276.00
2019-01-19T12:37:27.020Z,97267.94
2019-01-19T12:39:57.345Z,97272.08
2019-01-19T12:42:27.601Z,97274.41
2019-01-19T12:44:57.883Z,97271.61
2019-01-19T12:47:28.207Z,97267.94
2019-01-19T12:49:58.456Z,97263.55
2019-01-19T12:52:28.725Z,97261.22
2019-01-19T12:54:58.975Z,97259.88
2019-01-19T12:57:29.234Z,97254.61
2019-01-19T12:59:59.493Z,97259.39
2019-01-19T13:02:29.760Z,97253.55
2019-01-19T13:05:00.010Z,97251.33
2019-01-19T13:07:30.337Z,97251.45
2019-01-19T13:10:09.421Z,97247.77
2019-01-19T13:12:52.762Z,97248.76
2019-01-19T13:16:16.398Z,97244.73
2019-01-19T13:19:01.023Z,97238.48
2019-01-19T13:22:33.329Z,97241.28
2019-01-19T13:25:44.734Z,97240.41
2019-01-19T13:28:54.883Z,97243.22
2019-01-19T13:32:09.312Z,97248.12
2019-01-19T13:35:18.827Z,97245.52
2019-01-19T13:38:42.312Z,97244.09
2019-01-19T13:41:58.825Z,97241.48
2019-01-19T13:44:58.431Z,97246.86
2019-01-19T13:48:16.703Z,97247.84
2019-01-19T13:51:04.354Z,97234.39
2019-01-19T13:54:06.663Z,97231.31
2019-01-19T13:57:11.840Z,97232.58
2019-01-19T14:00:30.968Z,97234.76
2019-01-19T14:03:38.635Z,97233.92
2019-01-19T14:07:04.396Z,97236.69
2019-01-19T14:10:19.016Z,97236.33
2019-01-19T14:13:13.444Z,97234.59
2019-01-19T14:16:26.846Z,97229.72
2019-01-19T14:19:34.179Z,97228.74
2019-01-19T14:22:56.412Z,97225.94
2019-01-19T14:26:07.154Z,97222.50
2019-01-19T14:29:01.579Z,97217.63
2019-01-19T14:32:14.562Z,97217.23
2019-01-19T14:35:25.969Z,97215.02
2019-01-19T14:38:33.065Z,97216.77
2019-01-19T14:41:52.510Z,97218.47
2019-01-19T14:44:34.129Z,97219.81
2019-01-19T14:47:18.608Z,97212.84
2019-01-19T14:50:27.064Z,97213.80
2019-01-19T14:53:44.493Z,97213.01
2019-01-19T14:57:05.254Z,97213.09
2019-01-19T14:59:53.988Z,97211.86
2019-01-19T15:03:11.404Z,97210.04
2019-01-19T15:06:03.289Z,97211.38
2019-01-19T15:09:17.606Z,97201.58
2019-01-19T15:12:07.741Z,97210.04
2019-01-19T15:15:13.704Z,97207.47
2019-01-19T15:18:37.346Z,97208.30
2019-01-19T15:21:33.502Z,97202.73
2019-01-19T15:24:27.004Z,97201.27
2019-01-19T15:27:38.637Z,97200.05
2019-01-19T15:30:46.135Z,97202.73
2019-01-19T15:33:59.644Z,97194.39
2019-01-19T15:36:56.019Z,97205.61
2019-01-19T15:39:54.965Z,97203.32
2019-01-19T15:43:09.266Z,97205.53
2019-01-19T15:46:17.446Z,97203.20
2019-01-19T15:49:23.192Z,97200.23
2019-01-19T15:52:43.385Z,97202.34
2019-01-19T15:56:00.379Z,97204.27
2019-01-19T15:59:02.635Z,97201.58
2019-01-19T16:02:09.831Z,97199.48
2019-01-19T16:05:12.323Z,97200.58
2019-01-19T16:08:26.163Z,97201.06
2019-01-19T16:11:21.750Z,97198.96
2019-01-19T16:14:20.965Z,97201.48
2019-01-19T16:17:41.511Z,97201.84
2019-01-19T16:21:02.127Z,97195.24
2019-01-19T16:24:15.084Z,97190.09
2019-01-19T16:27:12.902Z,97185.39
2019-01-19T16:30:31.708Z,97191.52
2019-01-19T16:33:53.182Z,97189.70
2019-01-19T16:37:03.443Z,97188.95
2019-01-19T16:40:08.263Z,97183.21
2019-01-19T16:43:10.895Z,97180.13
2019-01-19T16:46:23.341Z,97176.73
2019-01-19T16:49:40.215Z,97174.81
2019-01-19T16:52:28.846Z,97167.92
2019-01-19T16:55:31.534Z,97172.07
2019-01-19T16:58:44.464Z,97168.91
2019-01-19T17:01:46.051Z,97165.83
2019-01-19T17:04:40.811Z,97169.27
2019-01-19T17:07:50.048Z,97166.39
2019-01-19T17:10:43.103Z,97162.23
2019-01-19T17:14:03.373Z,97160.42
2019-01-19T17:17:08.888Z,97163.70
2019-01-19T17:20:16.038Z,97161.60
2019-01-19T17:23:08.221Z,97168.31
2019-01-19T17:26:31.934Z,97168.68
2019-01-19T17:29:31.634Z,97166.86
2019-01-19T17:32:30.155Z,97165.32
2019-01-19T17:36:03.891Z,97171.17
2019-01-19T17:39:20.336Z,97168.64
2019-01-19T17:42:35.865Z,97170.94
2019-01-19T17:45:39.751Z,97172.67
2019-01-19T17:48:28.853Z,97177.19
2019-01-19T17:51:42.985Z,97169.99
2019-01-19T17:54:59.243Z,97169.40
2019-01-19T17:58:08.870Z,97174.19
2019-01-19T18:01:05.644Z,97172.36
2019-01-19T18:04:15.547Z,97177.98
2019-01-19T18:07:00.317Z,97166.13
2019-01-19T18:09:55.178Z,97172.72
2019-01-19T18:13:09.482Z,97166.88
2019-01-19T18:16:22.343Z,97174.70
2019-01-19T18:19:08.544Z,97166.28
2019-01-19T18:22:10.336Z,97171.02
2019-01-19T18:25:17.845Z,97169.28
2019-01-19T18:28:31.851Z,97168.69
2019-01-19T18:31:34.895Z,97168.69
2019-01-19T18:34:44.819Z,97166.01
2019-01-19T18:38:14.472Z,97164.66
2019-01-19T18:41:37.587Z,97159.45
2019-01-19T18:44:36.626Z,97159.17
2019-01-19T18:48:03.603Z,97154.39
2019-01-19T18:51:10.458Z,97154.66
2019-01-19T18:54:17.263Z,97159.56
2019-01-19T18:57:31.377Z,97156.05
2019-01-19T19:00:32.577Z,97152.25
2019-01-19T19:03:35.719Z,97148.97
2019-01-19T19:06:40.898Z,97154.34
2019-01-19T19:09:47.831Z,97157.03
2019-01-19T19:12:59.056Z,97160.00
2019-01-19T19:15:45.976Z,97159.02
2019-01-19T19:19:12.193Z,97154.12
2019-01-19T19:22:14.111Z,97153.52
2019-01-19T19:25:31.864Z,97148.15
2019-01-19T19:28:43.185Z,97153.05
2019-01-19T19:31:45.767Z,97152.18
2019-01-19T19:35:05.221Z,97145.97
2019-01-19T19:37:59.060Z,97143.64
2019-01-19T19:41:12.658Z,97151.00
2019-01-19T19:44:22.857Z,97151.70
2019-01-19T19:47:04.833Z,97153.92
2019-01-19T19:55:21.520Z,97146.60
2019-01-19T19:57:56.954Z,97145.27
2019-01-19T20:00:32.926Z,97153.60
2019-01-19T20:03:08.145Z,97159.45
2019-01-19T20:05:38.648Z,97154.55
2019-01-19T20:08:09.095Z,97150.80
2019-01-19T20:10:39.512Z,97155.58
2019-01-19T20:13:09.951Z,97144.83
2019-01-19T20:15:40.306Z,97155.58
2019-01-19T20:18:10.714Z,97149.81
2019-01-19T20:20:41.230Z,97146.64
2019-01-19T20:23:11.819Z,97156.05
2019-01-19T20:25:42.363Z,97144.55
2019-01-19T20:28:12.711Z,97150.20
2019-01-19T20:30:43.047Z,97148.34
2019-01-19T20:33:13.470Z,97146.92
2019-01-19T20:35:44.047Z,97144.23
2019-01-19T20:38:14.488Z,97143.25
2019-01-19T20:40:45.139Z,97144.59
2019-01-19T20:43:17.607Z,97144.11
2019-01-19T20:45:49.524Z,97143.05
2019-01-19T20:48:20.312Z,97145.73
2019-01-19T20:50:50.773Z,97145.22
2019-01-19T20:53:21.180Z,97149.25
2019-01-19T20:55:51.541Z,97149.25
2019-01-19T20:58:21.905Z,97149.25
2019-01-19T21:00:52.326Z,97155.14
2019-01-19T21:03:22.737Z,97149.65
2019-01-19T21:05:53.290Z,97143.80
2019-01-19T21:08:23.789Z,97148.66
2019-01-19T21:10:54.139Z,97150.52
2019-01-19T21:13:25.133Z,97151.95
2019-01-19T21:15:55.565Z,97157.23
2019-01-19T21:18:25.904Z,97147.55
2019-01-19T21:20:56.330Z,97147.91
2019-01-19T21:23:26.729Z,97148.90
2019-01-19T21:25:58.194Z,97147.08
2019-01-19T21:28:28.628Z,97143.52
2019-01-19T21:30:58.974Z,97144.39
2019-01-19T21:33:29.381Z,97137.75
2019-01-19T21:35:59.837Z,97146.20
2019-01-19T21:38:30.172Z,97147.55
2019-01-19T21:41:00.490Z,97136.20
2019-01-19T21:43:30.936Z,97141.70
2019-01-19T21:46:01.277Z,97148.03
2019-01-19T21:48:31.735Z,97140.44
2019-01-19T21:51:02.174Z,97136.80
2019-01-19T21:53:32.592Z,97129.09
2019-01-19T21:56:08.078Z,97132.77
2019-01-19T21:58:38.485Z,97129.20
2019-01-19T22:01:09.069Z,97137.27
2019-01-19T22:03:40.560Z,97129.36
2019-01-19T22:06:10.995Z,97138.18
2019-01-19T22:08:41.388Z,97141.66
2019-01-19T22:11:14.326Z,97129.55
2019-01-19T22:13:44.695Z,97126.86
2019-01-19T22:16:15.258Z,97132.80
2019-01-19T22:18:47.938Z,97127.90
2019-01-19T22:21:18.344Z,97129.36
2019-01-19T22:23:48.900Z,97123.23
2019-01-19T22:26:20.472Z,97121.53
2019-01-19T22:28:51.289Z,97112.95
2019-01-19T22:31:22.271Z,97112.60
2019-01-19T22:33:51.503Z,97112.21
2019-01-19T22:36:20.425Z,97105.61
2019-01-19T22:41:51.152Z,97109.48
2019-01-19T22:44:22.525Z,97103.63
2019-01-19T22:46:52.885Z,97102.88
2019-01-19T22:49:24.209Z,97099.33
2019-01-19T22:51:54.488Z,97100.31
2019-01-19T22:54:24.715Z,97096.28
2019-01-19T22:56:56.215Z,97091.02
2019-01-19T22:59:26.704Z,97082.68
2019-01-19T23:01:59.945Z,97084.38
2019-01-19T23:04:30.263Z,97082.29
2019-01-19T23:07:01.928Z,97081.18
2019-01-19T23:09:32.349Z,97073.12
2019-01-19T23:12:02.766Z,97076.17
2019-01-19T23:14:33.768Z,97076.17
2019-01-19T23:17:03.996Z,97074.07
2019-01-19T23:19:34.235Z,97077.75
2019-01-19T23:22:04.559Z,97069.80
2019-01-19T23:24:34.860Z,97068.06
2019-01-19T23:27:07.415Z,97069.53
2019-01-19T23:29:37.746Z,97067.44
2019-01-19T23:32:08.151Z,97068.39
2019-01-19T23:34:38.443Z,97067.05
2019-01-19T23:37:08.700Z,97067.55
2019-01-19T23:39:38.941Z,97068.14
2019-01-19T23:42:09.892Z,97060.56
2019-01-19T23:44:40.218Z,97062.02
2019-01-19T23:47:10.558Z,97055.78
2019-01-19T23:49:40.832Z,97053.21
2019-01-19T23:52:11.106Z,97051.12
2019-01-19T23:54:41.355Z,97044.48
2019-01-19T23:57:11.732Z,97035.20
2019-01-19T23:59:41.960Z,97035.31
